createdAt,value
2022-08-12T00:00:01.796Z,0.00
2022-08-12T00:01:01.784Z,0.00
2022-08-12T00:02:05.112Z,0.00
2022-08-12T00:03:01.822Z,0.00
2022-08-12T00:04:01.751Z,0.00
2022-08-12T00:05:01.741Z,0.00
2022-08-12T00:06:05.070Z,0.00
2022-08-12T00:07:01.721Z,0.00
2022-08-12T00:08:01.708Z,0.00
2022-08-12T00:09:01.696Z,0.00
2022-08-12T00:10:01.684Z,0.00
2022-08-12T00:11:09.657Z,0.00
2022-08-12T00:12:01.675Z,0.00
2022-08-12T00:13:01.653Z,0.00
2022-08-12T00:14:01.642Z,0.00
2022-08-12T00:15:01.629Z,0.00
2022-08-12T00:16:01.620Z,0.00
2022-08-12T00:17:01.608Z,0.00
2022-08-12T00:18:01.600Z,0.00
2022-08-12T00:19:01.586Z,0.00
2022-08-12T00:20:01.578Z,0.00
2022-08-12T00:21:02.053Z,0.00
2022-08-12T00:22:01.555Z,0.00
2022-08-12T00:23:01.543Z,0.00
2022-08-12T00:24:01.533Z,0.00
2022-08-12T00:25:01.524Z,0.00
2022-08-12T00:26:23.386Z,0.00
2022-08-12T00:27:01.501Z,0.00
2022-08-12T00:28:01.487Z,0.00
2022-08-12T00:29:01.486Z,0.00
2022-08-12T00:30:01.462Z,0.00
2022-08-12T00:31:01.468Z,0.00
2022-08-12T00:32:01.752Z,0.00
2022-08-12T00:33:03.276Z,0.00
2022-08-12T00:34:01.418Z,0.00
2022-08-12T00:35:01.411Z,0.00
2022-08-12T00:36:01.462Z,0.00
2022-08-12T00:37:05.464Z,0.00
2022-08-12T00:38:01.376Z,0.00
2022-08-12T00:39:01.364Z,0.00
2022-08-12T00:40:01.351Z,0.00
2022-08-12T00:41:01.404Z,0.00
2022-08-12T00:42:01.328Z,0.00
2022-08-12T00:43:01.345Z,0.00
2022-08-12T00:44:01.307Z,0.00
2022-08-12T00:45:01.297Z,0.00
2022-08-12T00:46:01.363Z,0.00
2022-08-12T00:47:01.274Z,0.00
2022-08-12T00:48:01.261Z,0.00
2022-08-12T00:49:01.248Z,0.00
2022-08-12T00:50:01.243Z,0.00
2022-08-12T00:51:01.226Z,0.00
2022-08-12T00:52:01.216Z,0.00
2022-08-12T00:53:01.206Z,0.00
2022-08-12T00:54:01.192Z,0.00
2022-08-12T00:55:01.182Z,0.00
2022-08-12T00:56:01.225Z,0.00
2022-08-12T00:57:01.164Z,0.00
2022-08-12T00:58:01.149Z,0.00
2022-08-12T00:59:01.135Z,0.00
2022-08-12T01:00:01.126Z,0.00
2022-08-12T01:01:01.213Z,0.00
2022-08-12T01:02:12.171Z,0.00
2022-08-12T01:03:01.097Z,0.00
2022-08-12T01:04:01.077Z,0.00
2022-08-12T01:05:01.068Z,0.00
2022-08-12T01:06:01.054Z,0.00
2022-08-12T01:07:01.044Z,0.00
2022-08-12T01:08:01.046Z,0.00
2022-08-12T01:09:01.021Z,0.00
2022-08-12T01:10:01.008Z,0.00
2022-08-12T01:11:00.999Z,0.00
2022-08-12T01:12:00.991Z,0.00
2022-08-12T01:13:07.207Z,0.00
2022-08-12T01:14:00.962Z,0.00
2022-08-12T01:15:00.952Z,0.00
2022-08-12T01:16:01.016Z,0.00
2022-08-12T01:17:00.929Z,0.00
2022-08-12T01:18:00.942Z,0.00
2022-08-12T01:19:00.907Z,0.00
2022-08-12T01:20:00.893Z,0.00
2022-08-12T01:21:00.882Z,0.00
2022-08-12T01:22:00.870Z,0.00
2022-08-12T01:23:00.858Z,0.00
2022-08-12T01:24:00.848Z,0.00
2022-08-12T01:25:00.839Z,0.00
2022-08-12T01:26:00.828Z,0.00
2022-08-12T01:27:00.811Z,0.00
2022-08-12T01:28:00.818Z,0.00
2022-08-12T01:29:00.810Z,0.00
2022-08-12T01:30:00.785Z,0.00
2022-08-12T01:31:00.780Z,0.00
2022-08-12T01:32:00.765Z,0.00
2022-08-12T01:33:00.751Z,0.00
2022-08-12T01:34:00.729Z,0.00
2022-08-12T01:35:00.719Z,0.00
2022-08-12T01:36:08.445Z,0.00
2022-08-12T01:37:00.700Z,0.00
2022-08-12T01:38:00.684Z,0.00
2022-08-12T01:39:00.676Z,0.00
2022-08-12T01:40:36.099Z,0.00
2022-08-12T01:41:00.744Z,0.00
2022-08-12T01:42:00.640Z,0.00
2022-08-12T01:43:00.626Z,0.00
2022-08-12T01:44:00.616Z,0.00
2022-08-12T01:45:00.601Z,0.00
2022-08-12T01:46:00.590Z,0.00
2022-08-12T01:47:00.602Z,0.00
2022-08-12T01:48:00.567Z,0.00
2022-08-12T01:49:00.555Z,0.00
2022-08-12T01:50:00.544Z,0.00
2022-08-12T01:51:01.401Z,0.00
2022-08-12T01:52:15.860Z,0.00
2022-08-12T01:53:00.508Z,0.00
2022-08-12T01:54:00.493Z,0.00
2022-08-12T01:55:00.484Z,0.00
2022-08-12T01:56:00.475Z,0.00
2022-08-12T01:57:00.459Z,0.00
2022-08-12T01:58:01.165Z,0.00
2022-08-12T01:59:00.438Z,0.00
2022-08-12T02:00:00.447Z,0.00
2022-08-12T02:01:00.466Z,0.00
2022-08-12T02:02:00.401Z,0.00
2022-08-12T02:03:00.403Z,0.00
2022-08-12T02:04:00.377Z,0.00
2022-08-12T02:05:00.362Z,0.00
2022-08-12T02:06:00.351Z,0.00
2022-08-12T02:07:00.340Z,0.00
2022-08-12T02:08:00.327Z,0.00
2022-08-12T02:09:00.314Z,0.00
2022-08-12T02:10:00.301Z,0.00
2022-08-12T02:11:00.290Z,0.00
2022-08-12T02:12:00.621Z,0.00
2022-08-12T02:13:00.391Z,0.00
2022-08-12T02:14:00.251Z,0.00
2022-08-12T02:15:00.240Z,0.00
2022-08-12T02:16:00.228Z,0.00
2022-08-12T02:17:00.242Z,0.00
2022-08-12T02:18:00.228Z,0.00
2022-08-12T02:19:00.191Z,0.00
2022-08-12T02:20:00.206Z,0.00
2022-08-12T02:21:00.163Z,0.00
2022-08-12T02:22:00.153Z,0.00
2022-08-12T02:23:00.142Z,0.00
2022-08-12T02:24:00.130Z,0.00
2022-08-12T02:25:00.113Z,0.00
2022-08-12T02:26:00.120Z,0.00
2022-08-12T02:27:00.097Z,0.00
2022-08-12T02:28:00.089Z,0.00
2022-08-12T02:29:00.070Z,0.00
2022-08-12T02:30:00.056Z,0.00
2022-08-12T02:31:00.040Z,0.00
2022-08-12T02:32:00.027Z,0.00
2022-08-12T02:33:00.016Z,0.00
2022-08-12T02:34:00.001Z,0.00
2022-08-12T02:34:59.988Z,0.00
2022-08-12T02:35:59.979Z,0.00
2022-08-12T02:37:00.940Z,0.00
2022-08-12T02:37:59.951Z,0.00
2022-08-12T02:38:59.945Z,0.00
2022-08-12T02:39:59.985Z,0.00
2022-08-12T02:40:59.910Z,0.00
2022-08-12T02:41:59.901Z,0.00
2022-08-12T02:42:59.886Z,0.00
2022-08-12T02:43:59.878Z,0.00
2022-08-12T02:44:59.861Z,0.00
2022-08-12T02:45:59.849Z,0.00
2022-08-12T02:46:59.836Z,0.00
2022-08-12T02:48:01.341Z,0.00
2022-08-12T02:48:59.810Z,0.00
2022-08-12T02:49:59.800Z,0.00
2022-08-12T02:50:59.785Z,0.00
2022-08-12T02:51:59.788Z,0.00
2022-08-12T02:52:59.760Z,0.00
2022-08-12T02:54:04.513Z,0.00
2022-08-12T02:54:59.733Z,0.00
2022-08-12T02:55:59.721Z,0.00
2022-08-12T02:56:59.725Z,0.00
2022-08-12T02:57:59.705Z,0.00
2022-08-12T02:58:59.683Z,0.00
2022-08-12T02:59:59.672Z,0.00
2022-08-12T03:00:59.704Z,0.00
2022-08-12T03:01:59.647Z,0.00
2022-08-12T03:02:59.630Z,0.00
2022-08-12T03:03:59.618Z,0.00
2022-08-12T03:04:59.603Z,0.00
2022-08-12T03:05:59.596Z,0.00
2022-08-12T03:06:59.577Z,0.00
2022-08-12T03:08:00.251Z,0.00
2022-08-12T03:08:59.551Z,0.00
2022-08-12T03:10:05.239Z,0.00
2022-08-12T03:10:59.532Z,0.00
2022-08-12T03:11:59.527Z,0.00
2022-08-12T03:12:59.499Z,0.00
2022-08-12T03:13:59.487Z,0.00
2022-08-12T03:14:59.475Z,0.00
2022-08-12T03:15:59.487Z,0.00
2022-08-12T03:16:59.452Z,0.00
2022-08-12T03:18:24.062Z,0.00
2022-08-12T03:18:59.423Z,0.00
2022-08-12T03:20:10.127Z,0.00
2022-08-12T03:20:59.400Z,0.00
2022-08-12T03:22:09.537Z,0.00
2022-08-12T03:22:59.384Z,0.00
2022-08-12T03:23:59.391Z,0.00
2022-08-12T03:24:59.344Z,0.00
2022-08-12T03:25:59.440Z,0.00
2022-08-12T03:27:00.503Z,0.00
2022-08-12T03:27:59.306Z,0.00
2022-08-12T03:28:59.294Z,0.00
2022-08-12T03:29:59.282Z,0.00
2022-08-12T03:30:59.267Z,0.00
2022-08-12T03:31:59.252Z,0.00
2022-08-12T03:32:59.238Z,0.00
2022-08-12T03:34:01.882Z,0.00
2022-08-12T03:34:59.211Z,0.00
2022-08-12T03:35:59.200Z,0.00
2022-08-12T03:36:59.193Z,0.00
2022-08-12T03:37:59.173Z,0.00
2022-08-12T03:38:59.160Z,0.00
2022-08-12T03:39:59.288Z,0.00
2022-08-12T03:40:59.132Z,0.00
2022-08-12T03:41:59.119Z,0.00
2022-08-12T03:42:59.106Z,0.00
2022-08-12T03:43:59.110Z,0.00
2022-08-12T03:44:59.077Z,0.00
2022-08-12T03:45:59.064Z,4.00
2022-08-12T03:46:59.094Z,0.00
2022-08-12T03:47:59.039Z,0.00
2022-08-12T03:48:59.026Z,4.00
2022-08-12T03:49:59.010Z,4.00
2022-08-12T03:50:58.998Z,4.00
2022-08-12T03:51:58.990Z,4.00
2022-08-12T03:52:58.969Z,8.00
2022-08-12T03:53:58.957Z,4.00
2022-08-12T03:54:58.944Z,8.00
2022-08-12T03:55:58.936Z,8.00
2022-08-12T03:56:58.917Z,8.00
2022-08-12T03:57:58.907Z,12.00
2022-08-12T03:58:58.997Z,12.00
2022-08-12T03:59:58.878Z,12.00
2022-08-12T04:00:58.937Z,12.00
2022-08-12T04:01:58.846Z,16.00
2022-08-12T04:02:58.834Z,16.00
2022-08-12T04:03:58.823Z,20.00
2022-08-12T04:04:58.804Z,24.00
2022-08-12T04:05:58.799Z,24.00
2022-08-12T04:06:58.780Z,28.00
2022-08-12T04:07:58.770Z,32.00
2022-08-12T04:08:58.753Z,36.00
2022-08-12T04:09:58.744Z,40.00
2022-08-12T04:10:58.728Z,40.00
2022-08-12T04:11:58.713Z,48.00
2022-08-12T04:12:58.695Z,52.00
2022-08-12T04:13:58.688Z,52.00
2022-08-12T04:14:58.683Z,56.00
2022-08-12T04:15:58.659Z,64.00
2022-08-12T04:16:58.645Z,68.00
2022-08-12T04:18:06.089Z,72.00
2022-08-12T04:18:58.612Z,76.00
2022-08-12T04:19:58.604Z,80.00
2022-08-12T04:20:58.585Z,88.00
2022-08-12T04:22:02.180Z,96.00
2022-08-12T04:22:58.559Z,100.00
2022-08-12T04:23:58.544Z,104.00
2022-08-12T04:24:58.527Z,108.00
2022-08-12T04:25:58.516Z,116.00
2022-08-12T04:26:58.501Z,120.00
2022-08-12T04:27:58.489Z,128.00
2022-08-12T04:28:58.471Z,136.00
2022-08-12T04:30:32.062Z,140.00
2022-08-12T04:30:58.447Z,144.00
2022-08-12T04:31:58.440Z,148.00
2022-08-12T04:32:58.423Z,160.00
2022-08-12T04:33:58.406Z,164.00
2022-08-12T04:34:58.397Z,168.00
2022-08-12T04:35:58.379Z,176.00
2022-08-12T04:36:58.377Z,180.00
2022-08-12T04:38:00.621Z,188.00
2022-08-12T04:38:59.744Z,196.00
2022-08-12T04:39:58.472Z,200.00
2022-08-12T04:40:58.305Z,204.00
2022-08-12T04:41:58.903Z,212.00
2022-08-12T04:42:58.290Z,220.00
2022-08-12T04:44:02.291Z,220.00
2022-08-12T04:44:58.249Z,228.00
2022-08-12T04:45:58.238Z,236.00
2022-08-12T04:46:58.222Z,240.00
2022-08-12T04:47:58.207Z,244.00
2022-08-12T04:48:58.192Z,252.00
2022-08-12T04:49:58.179Z,256.00
2022-08-12T04:50:58.164Z,260.00
2022-08-12T04:51:58.969Z,268.00
2022-08-12T04:52:58.139Z,268.00
2022-08-12T04:53:58.120Z,272.00
2022-08-12T04:54:58.111Z,276.00
2022-08-12T04:55:58.101Z,284.00
2022-08-12T04:57:03.970Z,288.00
2022-08-12T04:57:58.063Z,292.00
2022-08-12T04:58:58.050Z,296.00
2022-08-12T04:59:58.038Z,300.00
2022-08-12T05:00:58.019Z,308.00
2022-08-12T05:01:58.045Z,308.00
2022-08-12T05:02:58.100Z,316.00
2022-08-12T05:03:57.980Z,320.00
2022-08-12T05:05:01.180Z,324.00
2022-08-12T05:05:57.956Z,328.00
2022-08-12T05:06:57.942Z,332.00
2022-08-12T05:07:57.924Z,336.00
2022-08-12T05:08:57.908Z,344.00
2022-08-12T05:10:00.463Z,348.00
2022-08-12T05:10:57.879Z,348.00
2022-08-12T05:11:58.025Z,356.00
2022-08-12T05:12:57.853Z,364.00
2022-08-12T05:13:57.837Z,372.00
2022-08-12T05:14:57.821Z,376.00
2022-08-12T05:16:05.498Z,388.00
2022-08-12T05:16:57.797Z,396.00
2022-08-12T05:18:00.163Z,416.00
2022-08-12T05:18:57.768Z,432.00
2022-08-12T05:19:57.993Z,448.00
2022-08-12T05:20:57.737Z,464.00
2022-08-12T05:21:57.727Z,484.00
2022-08-12T05:23:01.079Z,500.00
2022-08-12T05:23:57.698Z,520.00
2022-08-12T05:24:57.678Z,540.00
2022-08-12T05:25:57.673Z,560.00
2022-08-12T05:26:57.659Z,584.00
2022-08-12T05:27:59.007Z,608.00
2022-08-12T05:28:57.625Z,632.00
2022-08-12T05:30:06.468Z,656.00
2022-08-12T05:30:57.599Z,684.00
2022-08-12T05:31:57.586Z,708.00
2022-08-12T05:33:00.034Z,728.00
2022-08-12T05:33:57.556Z,744.00
2022-08-12T05:34:57.547Z,760.00
2022-08-12T05:35:57.528Z,772.00
2022-08-12T05:36:57.512Z,784.00
2022-08-12T05:37:57.499Z,796.00
2022-08-12T05:38:57.492Z,816.00
2022-08-12T05:39:57.509Z,824.00
2022-08-12T05:40:57.462Z,840.00
2022-08-12T05:41:57.445Z,848.00
2022-08-12T05:42:57.430Z,860.00
2022-08-12T05:43:57.418Z,872.00
2022-08-12T05:44:57.402Z,880.00
2022-08-12T05:45:57.392Z,892.00
2022-08-12T05:46:57.376Z,900.00
2022-08-12T05:47:57.364Z,912.00
2022-08-12T05:48:57.349Z,924.00
2022-08-12T05:49:57.339Z,936.00
2022-08-12T05:50:57.322Z,952.00
2022-08-12T05:51:57.309Z,960.00
2022-08-12T05:52:57.294Z,972.00
2022-08-12T05:53:57.284Z,988.00
2022-08-12T05:54:58.059Z,996.00
2022-08-12T05:55:57.258Z,1012.00
2022-08-12T05:56:57.244Z,1024.00
2022-08-12T05:57:57.228Z,1036.00
2022-08-12T05:58:57.220Z,1048.00
2022-08-12T05:59:57.209Z,1064.00
2022-08-12T06:00:57.188Z,1080.00
2022-08-12T06:02:08.819Z,1092.00
2022-08-12T06:02:57.267Z,1104.00
2022-08-12T06:03:57.150Z,1120.00
2022-08-12T06:04:57.171Z,1128.00
2022-08-12T06:05:57.167Z,1148.00
2022-08-12T06:06:57.131Z,1160.00
2022-08-12T06:08:01.347Z,1176.00
2022-08-12T06:08:57.085Z,1192.00
2022-08-12T06:09:57.074Z,1212.00
2022-08-12T06:10:57.128Z,1232.00
2022-08-12T06:12:04.459Z,1248.00
2022-08-12T06:12:57.031Z,1272.00
2022-08-12T06:13:57.021Z,1292.00
2022-08-12T06:14:57.031Z,1308.00
2022-08-12T06:15:56.996Z,1328.00
2022-08-12T06:16:56.984Z,1352.00
2022-08-12T06:17:56.970Z,1376.00
2022-08-12T06:18:56.959Z,1400.00
2022-08-12T06:20:28.305Z,1424.00
2022-08-12T06:20:56.930Z,1444.00
2022-08-12T06:21:56.926Z,1468.00
2022-08-12T06:22:56.913Z,1492.00
2022-08-12T06:23:56.896Z,1520.00
2022-08-12T06:24:56.882Z,1540.00
2022-08-12T06:25:56.876Z,1568.00
2022-08-12T06:26:56.860Z,1592.00
2022-08-12T06:28:07.441Z,1620.00
2022-08-12T06:28:56.831Z,1648.00
2022-08-12T06:30:06.940Z,1676.00
2022-08-12T06:31:22.584Z,1712.00
2022-08-12T06:31:56.795Z,1736.00
2022-08-12T06:33:18.611Z,1760.00
2022-08-12T06:35:22.589Z,1788.00
2022-08-12T06:35:25.358Z,1816.00
2022-08-12T06:36:05.557Z,1840.00
2022-08-12T06:38:01.274Z,1896.00
2022-08-12T06:39:01.312Z,1924.00
2022-08-12T06:41:06.706Z,1984.00
2022-08-12T06:42:32.722Z,2016.00
2022-08-12T06:44:11.672Z,2088.00
2022-08-12T06:45:12.425Z,2120.00
2022-08-12T06:47:06.132Z,2184.00
2022-08-12T06:48:06.013Z,2220.00
2022-08-12T06:50:11.572Z,2304.00
2022-08-12T06:51:11.468Z,2340.00
2022-08-12T06:53:18.630Z,2428.00
2022-08-12T06:54:18.702Z,2472.00
2022-08-12T06:56:34.694Z,2560.00
2022-08-12T06:58:01.731Z,2608.00
2022-08-12T06:59:28.344Z,2716.00
2022-08-12T07:00:32.413Z,2764.00
2022-08-12T07:02:37.031Z,2876.00
2022-08-12T07:03:33.763Z,2928.00
2022-08-12T07:05:39.257Z,3048.00
2022-08-12T07:06:39.238Z,3112.00
2022-08-12T07:08:43.793Z,3248.00
2022-08-12T07:10:04.499Z,3320.00
2022-08-12T07:10:43.739Z,3388.00
2022-08-12T07:11:43.735Z,3460.00
2022-08-12T07:12:43.963Z,3540.00
2022-08-12T07:14:02.660Z,3628.00
2022-08-12T07:14:48.397Z,3716.00
2022-08-12T07:15:43.692Z,3800.00
2022-08-12T07:16:43.680Z,3900.00
2022-08-12T07:17:43.670Z,3992.00
2022-08-12T07:18:43.670Z,4092.00
2022-08-12T07:19:45.392Z,4192.00
2022-08-12T07:20:52.654Z,4304.00
2022-08-12T07:22:00.049Z,4412.00
2022-08-12T07:22:43.621Z,4520.00
2022-08-12T07:23:43.608Z,4632.00
2022-08-12T07:24:43.608Z,4756.00
2022-08-12T07:25:43.590Z,4892.00
2022-08-12T07:26:44.246Z,5024.00
2022-08-12T07:27:43.580Z,5160.00
2022-08-12T07:28:43.567Z,5296.00
2022-08-12T07:29:58.024Z,5456.00
2022-08-12T07:30:43.546Z,5624.00
2022-08-12T07:31:43.540Z,5820.00
2022-08-12T07:32:43.785Z,5992.00
2022-08-12T07:33:43.531Z,6168.00
2022-08-12T07:34:43.590Z,6356.00
2022-08-12T07:35:43.499Z,6540.00
2022-08-12T07:36:43.504Z,6748.00
2022-08-12T07:37:43.486Z,6948.00
2022-08-12T07:38:43.481Z,7144.00
2022-08-12T07:39:50.693Z,7356.00
2022-08-12T07:40:43.461Z,7564.00
2022-08-12T07:41:43.449Z,7764.00
2022-08-12T07:42:43.448Z,7944.00
2022-08-12T07:43:43.435Z,8152.00
2022-08-12T07:44:43.427Z,8368.00
2022-08-12T07:45:43.416Z,8568.00
2022-08-12T07:46:43.406Z,8796.00
2022-08-12T07:47:43.677Z,8992.00
2022-08-12T07:48:43.393Z,9244.00
2022-08-12T07:50:05.112Z,9456.00
2022-08-12T07:50:43.375Z,9728.00
2022-08-12T07:51:43.367Z,9952.00
2022-08-12T07:52:43.569Z,10212.00
2022-08-12T07:53:50.167Z,10496.00
2022-08-12T07:54:43.350Z,10760.00
2022-08-12T07:55:43.351Z,10976.00
2022-08-12T07:56:43.331Z,11220.00
2022-08-12T07:57:43.329Z,11472.00
2022-08-12T07:58:47.027Z,11696.00
2022-08-12T07:59:43.315Z,11900.00
2022-08-12T08:00:43.300Z,12120.00
2022-08-12T08:01:43.359Z,12360.00
2022-08-12T08:02:43.688Z,12596.00
2022-08-12T08:03:47.607Z,12812.00
2022-08-12T08:04:43.395Z,13016.00
2022-08-12T08:05:43.293Z,13220.00
2022-08-12T08:06:43.280Z,13444.00
2022-08-12T08:07:43.256Z,13624.00
2022-08-12T08:08:43.254Z,13784.00
2022-08-12T08:09:43.250Z,13980.00
2022-08-12T08:10:43.239Z,14120.00
2022-08-12T08:11:43.232Z,14344.00
2022-08-12T08:12:43.234Z,14536.00
2022-08-12T08:13:43.226Z,14660.00
2022-08-12T08:14:43.219Z,14804.00
2022-08-12T08:16:02.595Z,14944.00
2022-08-12T08:16:43.211Z,15096.00
2022-08-12T08:17:43.211Z,15200.00
2022-08-12T08:18:43.214Z,15264.00
2022-08-12T08:20:02.055Z,15340.00
2022-08-12T08:20:43.201Z,15444.00
2022-08-12T08:21:43.190Z,15512.00
2022-08-12T08:22:43.346Z,15616.00
2022-08-12T08:23:43.174Z,15680.00
2022-08-12T08:24:43.174Z,15740.00
2022-08-12T08:25:43.168Z,15824.00
2022-08-12T08:26:43.172Z,15916.00
2022-08-12T08:27:43.162Z,16000.00
2022-08-12T08:28:43.153Z,16128.00
2022-08-12T08:29:43.151Z,16192.00
2022-08-12T08:30:43.146Z,16256.00
2022-08-12T08:31:45.398Z,16256.00
2022-08-12T08:32:43.139Z,16320.00
2022-08-12T08:34:04.282Z,16352.00
2022-08-12T08:34:53.885Z,16416.00
2022-08-12T08:35:46.820Z,16512.00
2022-08-12T08:36:43.130Z,16512.00
2022-08-12T08:37:43.126Z,16576.00
2022-08-12T08:38:43.121Z,16640.00
2022-08-12T08:39:43.171Z,16672.00
2022-08-12T08:40:43.112Z,16736.00
2022-08-12T08:42:16.029Z,16768.00
2022-08-12T08:42:45.990Z,16832.00
2022-08-12T08:43:44.171Z,16800.00
2022-08-12T08:44:43.101Z,16864.00
2022-08-12T08:45:43.096Z,16864.00
2022-08-12T08:46:43.103Z,16928.00
2022-08-12T08:47:43.092Z,16960.00
2022-08-12T08:48:43.092Z,16992.00
2022-08-12T08:49:43.085Z,17024.00
2022-08-12T08:50:43.085Z,17088.00
2022-08-12T08:51:43.082Z,17152.00
2022-08-12T08:52:43.287Z,17152.00
2022-08-12T08:53:43.086Z,17248.00
2022-08-12T08:54:43.075Z,17248.00
2022-08-12T08:56:04.083Z,17280.00
2022-08-12T08:56:43.077Z,17216.00
2022-08-12T08:57:44.771Z,17152.00
2022-08-12T08:58:43.070Z,17120.00
2022-08-12T08:59:43.085Z,17216.00
2022-08-12T09:00:43.065Z,17408.00
2022-08-12T09:01:44.530Z,17472.00
2022-08-12T09:02:49.481Z,17376.00
2022-08-12T09:05:07.720Z,17312.00
2022-08-12T09:05:12.545Z,17376.00
2022-08-12T09:06:02.758Z,17568.00
2022-08-12T09:07:51.150Z,17472.00
2022-08-12T09:08:43.104Z,17376.00
2022-08-12T09:10:02.651Z,17472.00
2022-08-12T09:10:45.279Z,17600.00
2022-08-12T09:12:10.982Z,17504.00
2022-08-12T09:12:43.045Z,17664.00
2022-08-12T09:14:43.048Z,17600.00
2022-08-12T09:15:43.044Z,17536.00
2022-08-12T09:16:43.039Z,17568.00
2022-08-12T09:17:43.446Z,17568.00
2022-08-12T09:18:43.050Z,17600.00
2022-08-12T09:19:43.795Z,17600.00
2022-08-12T09:20:43.036Z,17696.00
2022-08-12T09:21:54.251Z,17728.00
2022-08-12T09:22:43.317Z,17632.00
2022-08-12T09:24:00.568Z,17696.00
2022-08-12T09:24:43.028Z,17664.00
2022-08-12T09:25:43.027Z,17600.00
2022-08-12T09:26:46.366Z,17696.00
2022-08-12T09:28:43.024Z,17728.00
2022-08-12T09:30:10.745Z,17696.00
2022-08-12T09:30:43.026Z,17600.00
2022-08-12T09:32:04.179Z,17760.00
2022-08-12T09:33:03.971Z,17536.00
2022-08-12T09:34:26.813Z,17792.00
2022-08-12T09:34:44.000Z,17568.00
2022-08-12T09:35:43.565Z,17568.00
2022-08-12T09:36:58.058Z,17728.00
2022-08-12T09:37:57.553Z,17632.00
2022-08-12T09:38:58.924Z,17216.00
2022-08-12T09:40:02.131Z,17472.00
2022-08-12T09:41:01.405Z,17760.00
2022-08-12T09:42:34.255Z,17856.00
2022-08-12T09:42:56.900Z,18048.00
2022-08-12T09:43:46.817Z,17920.00
2022-08-12T09:44:43.163Z,18016.00
2022-08-12T09:46:19.739Z,18048.00
2022-08-12T09:46:43.101Z,18080.00
2022-08-12T09:47:43.012Z,18048.00
2022-08-12T09:48:44.899Z,18048.00
2022-08-12T09:49:43.003Z,18112.00
2022-08-12T09:50:43.010Z,18080.00
2022-08-12T09:51:43.990Z,18080.00
2022-08-12T09:52:43.223Z,17984.00
2022-08-12T09:53:43.073Z,18080.00
2022-08-12T09:54:43.288Z,18112.00
2022-08-12T09:55:59.585Z,18080.00
2022-08-12T09:57:00.231Z,18144.00
2022-08-12T09:58:46.680Z,18144.00
2022-08-12T09:58:58.149Z,18176.00
2022-08-12T10:00:15.655Z,18144.00
2022-08-12T10:00:52.258Z,18176.00
2022-08-12T10:02:42.925Z,18144.00
2022-08-12T10:02:50.065Z,18112.00
2022-08-12T10:04:03.535Z,18112.00
2022-08-12T10:04:51.345Z,18080.00
2022-08-12T10:06:20.138Z,18144.00
2022-08-12T10:06:54.046Z,18176.00
2022-08-12T10:07:42.992Z,18208.00
2022-08-12T10:08:42.992Z,18304.00
2022-08-12T10:09:57.952Z,18272.00
2022-08-12T10:10:42.994Z,18304.00
2022-08-12T10:12:11.935Z,18368.00
2022-08-12T10:12:43.568Z,18368.00
2022-08-12T10:13:42.992Z,18240.00
2022-08-12T10:14:50.287Z,18272.00
2022-08-12T10:16:00.558Z,18272.00
2022-08-12T10:16:42.992Z,18272.00
2022-08-12T10:17:56.903Z,18176.00
2022-08-12T10:18:52.316Z,18336.00
2022-08-12T10:19:51.581Z,18432.00
2022-08-12T10:20:42.999Z,18432.00
2022-08-12T10:21:42.994Z,18528.00
2022-08-12T10:22:43.131Z,18496.00
2022-08-12T10:23:45.941Z,18624.00
2022-08-12T10:24:42.995Z,18720.00
2022-08-12T10:26:37.520Z,18752.00
2022-08-12T10:26:42.990Z,18784.00
2022-08-12T10:28:05.289Z,18816.00
2022-08-12T10:28:43.011Z,18816.00
2022-08-12T10:30:03.378Z,18784.00
2022-08-12T10:30:46.808Z,18784.00
2022-08-12T10:32:01.694Z,18816.00
2022-08-12T10:33:02.568Z,18816.00
2022-08-12T10:33:54.100Z,18752.00
2022-08-12T10:34:53.628Z,18720.00
2022-08-12T10:35:43.002Z,18688.00
2022-08-12T10:36:44.320Z,18752.00
2022-08-12T10:38:34.420Z,18816.00
2022-08-12T10:38:44.266Z,18784.00
2022-08-12T10:40:00.985Z,18848.00
2022-08-12T10:40:43.050Z,18944.00
2022-08-12T10:41:58.100Z,18944.00
2022-08-12T10:42:46.319Z,18848.00
2022-08-12T10:43:55.278Z,18944.00
2022-08-12T10:44:42.998Z,18944.00
2022-08-12T10:45:42.994Z,18912.00
2022-08-12T10:46:42.993Z,18976.00
2022-08-12T10:48:07.391Z,19008.00
2022-08-12T10:48:42.998Z,19072.00
2022-08-12T10:50:04.822Z,19104.00
2022-08-12T10:51:02.126Z,19136.00
2022-08-12T10:52:04.671Z,19104.00
2022-08-12T10:52:42.993Z,19104.00
2022-08-12T10:53:43.716Z,19168.00
2022-08-12T10:54:43.002Z,19168.00
2022-08-12T10:55:42.996Z,19104.00
2022-08-12T10:56:42.997Z,19232.00
2022-08-12T10:58:15.244Z,19200.00
2022-08-12T10:58:44.875Z,19264.00
2022-08-12T11:00:30.304Z,19296.00
2022-08-12T11:00:55.262Z,19296.00
2022-08-12T11:04:16.960Z,19328.00
2022-08-12T11:04:25.808Z,19296.00
2022-08-12T11:04:28.358Z,19264.00
2022-08-12T11:04:49.741Z,19264.00
2022-08-12T11:07:05.151Z,19296.00
2022-08-12T11:07:06.728Z,19104.00
2022-08-12T11:08:33.576Z,19264.00
2022-08-12T11:08:46.341Z,19360.00
2022-08-12T11:09:56.742Z,19520.00
2022-08-12T11:10:43.005Z,19680.00
2022-08-12T11:12:36.619Z,19680.00
2022-08-12T11:12:58.918Z,19744.00
2022-08-12T11:13:46.764Z,19808.00
2022-08-12T11:14:47.966Z,19840.00
2022-08-12T11:16:18.937Z,19808.00
2022-08-12T11:17:33.551Z,19808.00
2022-08-12T11:17:52.825Z,19776.00
2022-08-12T11:18:43.013Z,19808.00
2022-08-12T11:19:43.018Z,19840.00
2022-08-12T11:20:43.023Z,19840.00
2022-08-12T11:21:58.009Z,19904.00
2022-08-12T11:22:43.205Z,19968.00
2022-08-12T11:23:43.021Z,19872.00
2022-08-12T11:24:51.179Z,19904.00
2022-08-12T11:25:57.745Z,19968.00
2022-08-12T11:26:43.054Z,19936.00
2022-08-12T11:27:43.356Z,20032.00
2022-08-12T11:28:43.037Z,20064.00
2022-08-12T11:30:07.120Z,20128.00
2022-08-12T11:30:43.183Z,20096.00
2022-08-12T11:32:02.098Z,20224.00
2022-08-12T11:32:43.030Z,20192.00
2022-08-12T11:34:04.210Z,20288.00
2022-08-12T11:34:53.607Z,20288.00
2022-08-12T11:35:43.175Z,20352.00
2022-08-12T11:36:43.080Z,20224.00
2022-08-12T11:37:59.403Z,20384.00
2022-08-12T11:38:43.012Z,20384.00
2022-08-12T11:40:03.065Z,20448.00
2022-08-12T11:40:43.251Z,20480.00
2022-08-12T11:41:43.222Z,20416.00
2022-08-12T11:42:45.978Z,20352.00
2022-08-12T11:43:50.776Z,20416.00
2022-08-12T11:44:43.526Z,20352.00
2022-08-12T11:45:46.848Z,20352.00
2022-08-12T11:46:43.024Z,20416.00
2022-08-12T11:47:43.024Z,20448.00
2022-08-12T11:48:52.469Z,20384.00
2022-08-12T11:49:45.708Z,20320.00
2022-08-12T11:50:43.035Z,20512.00
2022-08-12T11:51:43.038Z,20448.00
2022-08-12T11:52:56.809Z,20608.00
2022-08-12T11:53:57.338Z,20672.00
2022-08-12T11:54:43.039Z,20640.00
2022-08-12T11:55:46.727Z,20640.00
2022-08-12T11:56:59.259Z,20704.00
2022-08-12T11:58:08.163Z,20672.00
2022-08-12T12:02:02.558Z,20800.00
2022-08-12T12:02:43.386Z,20768.00
2022-08-12T12:03:46.428Z,20704.00
2022-08-12T12:04:43.070Z,20672.00
2022-08-12T12:05:45.814Z,20576.00
2022-08-12T12:06:43.067Z,20704.00
2022-08-12T12:08:38.366Z,20576.00
2022-08-12T12:08:47.005Z,20640.00
2022-08-12T12:09:52.459Z,20704.00
2022-08-12T12:10:43.079Z,20704.00
2022-08-12T12:11:48.828Z,20800.00
2022-08-12T12:12:50.092Z,20736.00
2022-08-12T12:14:07.856Z,20640.00
2022-08-12T12:14:43.084Z,20704.00
2022-08-12T12:15:43.091Z,20704.00
2022-08-12T12:16:49.919Z,20672.00
2022-08-12T12:17:43.092Z,20608.00
2022-08-12T12:18:43.091Z,20640.00
2022-08-12T12:19:46.106Z,20640.00
2022-08-12T12:20:43.097Z,20480.00
2022-08-12T12:21:47.153Z,20416.00
2022-08-12T12:22:45.100Z,20416.00
2022-08-12T12:23:46.899Z,20384.00
2022-08-12T12:24:43.101Z,17312.00
2022-08-12T12:26:06.949Z,20352.00
2022-08-12T12:26:43.101Z,20096.00
2022-08-12T12:28:04.394Z,20608.00
2022-08-12T12:28:54.538Z,10864.00
2022-08-12T12:30:13.648Z,14376.00
2022-08-12T12:30:54.682Z,3864.00
2022-08-12T12:32:10.109Z,4400.00
2022-08-12T12:32:43.339Z,5184.00
2022-08-12T12:33:57.228Z,2800.00
2022-08-12T12:35:13.939Z,2604.00
2022-08-12T12:36:06.243Z,2636.00
2022-08-12T12:36:43.119Z,20864.00
2022-08-12T12:38:04.002Z,20512.00
2022-08-12T12:39:54.745Z,20128.00
2022-08-12T12:40:50.447Z,19936.00
2022-08-12T12:42:58.818Z,19680.00